Charleston, SC

8:19 PM EDT on August 18, 2017 (GMT -0400)
Charleston Executive

Weather History for KJZI - December, 2013

Change the Weather History Date:

Sunday, December 15, 2013

  Actual Average (KCHS) Record (KCHS)
Temperature  
Mean Temperature 56 °F -  
Max Temperature 66 °F 61 °F 80 °F (1971)
Min Temperature 46 °F 40 °F 15 °F (1962)
Degree Days  
Heating Degree Days 9    
Growing Degree Days 6 (Base 50)    
Moisture  
Dew Point 52 °F    
Average Humidity 82    
Maximum Humidity 100    
Minimum Humidity 59    
Precipitation  
Precipitation 0.05 in - - ()
Sea Level Pressure  
Sea Level Pressure 29.94 in    
Wind  
Wind Speed 8 mph (West)    
Max Wind Speed 16 mph    
Max Gust Speed 21 mph    
Visibility 9 miles    
Events Rain    
Averages and records for this station are not official NWS values.
T = Trace of Precipitation, MM = Missing Value Source: NWS Daily Summary

Daily Weather History Graph

Daily Weather History Graph

Search for Another Location

Airport or City:

Trip Planner

Search our weather history database for the weather conditions in past years. The results will help you decide how hot, cold, wet, or windy it might be!

Date:

Astronomy

Dec. 15, 2013 Rise Set
Actual Time 7:14 AM EST 5:15 PM EST
Civil Twilight 6:47 AM EST 5:42 PM EST
Nautical Twilight 6:16 AM EST 6:13 PM EST
Astronomical Twilight 5:46 AM EST 6:43 PM EST
Moon 4:15 PM EST (12/15) 5:33 AM EST (12/15)
Length of Visible Light 10h 55m
Length of Day
10h 00m
Waxing Gibbous, 97% of the Moon is Illuminated
Dec 15
Waxing Gibbous
Dec 17
Full
Dec 25
Last Quarter
Jan 1
New
Jan 7
First Quarter

Hourly Weather History & Observations

Time (EST) Temp. Windchill Dew Point Humidity Pressure Visibility Wind Dir Wind Speed Gust Speed Precip Events Conditions
12:15 AM 64.4 °F - 64.4 °F 100% 29.82 in 5.0 mi SW 6.9 mph - 0.00 in   Overcast
12:35 AM 64.4 °F - 64.4 °F 100% 29.82 in 6.0 mi Calm Calm - 0.00 in   Overcast
12:55 AM 66.2 °F - 64.4 °F 94% 29.81 in 7.0 mi Calm Calm - 0.00 in   Mostly Cloudy
1:15 AM 66.2 °F - 64.4 °F 94% 29.81 in 8.0 mi WSW 6.9 mph - 0.00 in   Mostly Cloudy
1:35 AM 66.2 °F - 64.4 °F 94% 29.81 in 8.0 mi SW 6.9 mph - 0.00 in   Overcast
1:55 AM 66.2 °F - 64.4 °F 94% 29.82 in 8.0 mi SW 8.1 mph - 0.00 in   Mostly Cloudy
2:15 AM 66.2 °F - 64.4 °F 94% 29.81 in 8.0 mi WSW 3.5 mph - 0.00 in   Overcast
2:35 AM 66.2 °F - 64.4 °F 94% 29.83 in 10.0 mi West 9.2 mph - 0.00 in   Overcast
2:55 AM 66.2 °F - 62.6 °F 88% 29.83 in 10.0 mi West 12.7 mph 18.4 mph 0.00 in   Overcast
3:15 AM 66.2 °F - 62.6 °F 88% 29.81 in 10.0 mi WNW 16.1 mph 20.7 mph 0.00 in   Mostly Cloudy
3:35 AM 64.4 °F - 62.6 °F 94% 29.82 in 10.0 mi WNW 15.0 mph 18.4 mph 0.00 in   Mostly Cloudy
3:55 AM 64.4 °F - 60.8 °F 88% 29.82 in 10.0 mi WNW 9.2 mph 19.6 mph 0.00 in   Overcast
4:15 AM 64.4 °F - 59.0 °F 83% 29.83 in 10.0 mi WNW 12.7 mph - 0.00 in   Overcast
4:35 AM 62.6 °F - 57.2 °F 82% 29.82 in 10.0 mi WNW 11.5 mph 18.4 mph 0.00 in   Overcast
4:55 AM 62.6 °F - 55.4 °F 77% 29.83 in 10.0 mi WNW 11.5 mph - 0.00 in   Overcast
5:15 AM 62.6 °F - 55.4 °F 77% 29.84 in 10.0 mi WNW 9.2 mph - 0.00 in   Overcast
5:35 AM 62.6 °F - 55.4 °F 77% 29.86 in 7.0 mi West 11.5 mph - 0.00 in   Light Drizzle
5:55 AM 60.8 °F - 55.4 °F 82% 29.86 in 3.0 mi WSW 6.9 mph 16.1 mph 0.01 in Rain Light Rain
6:15 AM 59.0 °F - 57.2 °F 94% 29.86 in 5.0 mi SW 8.1 mph - 0.01 in   Mostly Cloudy
6:35 AM 59.0 °F - 57.2 °F 94% 29.86 in 5.0 mi SSW 8.1 mph - 0.01 in Rain Light Rain
6:55 AM 59.0 °F - 57.2 °F 94% 29.87 in 5.0 mi West 3.5 mph - 0.02 in Rain Light Rain
7:15 AM 59.0 °F - 57.2 °F 94% 29.89 in 8.0 mi WSW 9.2 mph - 0.00 in   Light Drizzle
7:35 AM 59.0 °F - 57.2 °F 94% 29.88 in 5.0 mi WSW 11.5 mph 16.1 mph 0.01 in Rain Light Rain
7:55 AM 59.0 °F - 57.2 °F 94% 29.86 in 10.0 mi SW 3.5 mph - 0.01 in Rain Light Rain
8:15 AM 59.0 °F - 57.2 °F 94% 29.89 in 9.0 mi WSW 11.5 mph - 0.00 in Rain Light Rain
8:35 AM 59.0 °F - 57.2 °F 94% 29.92 in 10.0 mi WSW 10.4 mph - 0.00 in   Mostly Cloudy
8:55 AM 59.0 °F - 55.4 °F 88% 29.92 in 10.0 mi WSW 5.8 mph - 0.00 in   Mostly Cloudy
9:15 AM 57.2 °F - 55.4 °F 94% 29.93 in 8.0 mi WSW 8.1 mph - 0.00 in   Overcast
9:35 AM 57.2 °F - 55.4 °F 94% 29.93 in 7.0 mi West 5.8 mph - 0.01 in   Overcast
9:55 AM 57.2 °F - 55.4 °F 94% 29.92 in 10.0 mi West 9.2 mph - 0.01 in   Overcast
10:15 AM 59.0 °F - 57.2 °F 94% 29.93 in 10.0 mi West 9.2 mph - 0.00 in   Mostly Cloudy
10:35 AM 60.8 °F - 57.2 °F 88% 29.94 in 10.0 mi WSW 8.1 mph - 0.00 in   Mostly Cloudy
10:55 AM 60.8 °F - 55.4 °F 82% 29.95 in 10.0 mi WSW 8.1 mph 16.1 mph 0.00 in   Overcast
11:15 AM 60.8 °F - 55.4 °F 82% 29.94 in 10.0 mi West 9.2 mph - 0.00 in   Overcast
11:35 AM 60.8 °F - 55.4 °F 82% 29.95 in 10.0 mi WSW 10.4 mph - 0.00 in   Overcast
11:55 AM 60.8 °F - 55.4 °F 82% 29.94 in 10.0 mi WNW 12.7 mph - 0.00 in   Overcast
12:15 PM 59.0 °F - 53.6 °F 82% 29.93 in 10.0 mi WNW 11.5 mph - 0.00 in   Overcast
12:35 PM 60.8 °F - 53.6 °F 77% 29.92 in 10.0 mi WNW 11.5 mph 20.7 mph 0.00 in   Mostly Cloudy
12:55 PM 60.8 °F - 51.8 °F 72% 29.92 in 10.0 mi West 15.0 mph 20.7 mph 0.00 in   Mostly Cloudy
1:15 PM 60.8 °F - 50.0 °F 68% 29.91 in 10.0 mi West 9.2 mph 17.3 mph 0.00 in   Scattered Clouds
1:35 PM 60.8 °F - 48.2 °F 63% 29.91 in 10.0 mi West 10.4 mph 20.7 mph 0.00 in   Scattered Clouds
1:55 PM 60.8 °F - 48.2 °F 63% 29.92 in 10.0 mi West 15.0 mph 19.6 mph 0.00 in   Scattered Clouds
2:15 PM 60.8 °F - 46.4 °F 59% 29.92 in 10.0 mi West 15.0 mph - 0.00 in   Scattered Clouds
2:35 PM 59.0 °F - 46.4 °F 63% 29.92 in 10.0 mi West 11.5 mph 18.4 mph 0.00 in   Mostly Cloudy
2:55 PM 59.0 °F - 46.4 °F 63% 29.92 in 10.0 mi WNW 10.4 mph - 0.00 in   Mostly Cloudy
3:15 PM 57.2 °F - 44.6 °F 63% 29.93 in 10.0 mi WNW 11.5 mph - 0.00 in   Partly Cloudy
3:35 PM 57.2 °F - 44.6 °F 63% 29.94 in 10.0 mi WNW 9.2 mph - 0.00 in   Partly Cloudy
3:55 PM 57.2 °F - 44.6 °F 63% 29.95 in 10.0 mi WNW 10.4 mph - 0.00 in   Scattered Clouds
4:15 PM 57.2 °F - 44.6 °F 63% 29.96 in 10.0 mi West 6.9 mph - 0.00 in   Partly Cloudy
4:35 PM 55.4 °F - 44.6 °F 67% 29.97 in 10.0 mi Calm Calm - 0.00 in   Clear
4:55 PM 55.4 °F - 44.6 °F 67% 29.97 in 10.0 mi Calm Calm - 0.00 in   Clear
5:15 PM 53.6 °F - 46.4 °F 77% 29.98 in 10.0 mi Calm Calm - 0.00 in   Clear
5:35 PM 53.6 °F - 46.4 °F 77% 29.99 in 10.0 mi Calm Calm - 0.00 in   Clear
5:55 PM 51.8 °F - 46.4 °F 82% 30.00 in 10.0 mi Calm Calm - 0.00 in   Scattered Clouds
6:15 PM 51.8 °F - 44.6 °F 76% 30.01 in 10.0 mi WNW 6.9 mph - 0.00 in   Partly Cloudy
6:35 PM 51.8 °F - 44.6 °F 76% 30.03 in 10.0 mi WNW 4.6 mph - 0.00 in   Clear
6:55 PM 51.8 °F - 44.6 °F 76% 30.04 in 10.0 mi NW 6.9 mph - 0.00 in   Clear
7:15 PM 51.8 °F - 42.8 °F 71% 30.05 in 10.0 mi NW 5.8 mph - 0.00 in   Clear
7:35 PM 50.0 °F - 42.8 °F 76% 30.06 in 10.0 mi Calm Calm - 0.00 in   Clear
7:55 PM 50.0 °F - 42.8 °F 76% 30.07 in 10.0 mi WNW 3.5 mph - 0.00 in   Clear
8:15 PM 50.0 °F - 42.8 °F 76% 30.08 in 10.0 mi WNW 8.1 mph - 0.00 in   Clear
8:35 PM 48.2 °F - 42.8 °F 82% 30.08 in 10.0 mi WNW 4.6 mph - 0.00 in   Clear
8:55 PM 48.2 °F - 42.8 °F 82% 30.09 in 10.0 mi Calm Calm - 0.00 in   Clear
9:15 PM 46.4 °F 42.9 °F 42.8 °F 87% 30.09 in 10.0 mi WNW 6.9 mph - 0.00 in   Clear
9:35 PM 46.4 °F 45.2 °F 42.8 °F 87% 30.10 in 10.0 mi WNW 3.5 mph - 0.00 in   Clear
9:55 PM 46.4 °F 42.4 °F 42.8 °F 87% 30.10 in 10.0 mi WNW 8.1 mph - 0.00 in   Clear
10:15 PM 48.2 °F - 42.8 °F 82% 30.11 in 10.0 mi WNW 8.1 mph - 0.00 in   Clear
10:35 PM 48.2 °F - 42.8 °F 82% 30.12 in 10.0 mi WNW 9.2 mph - 0.00 in   Clear
10:55 PM 48.2 °F - 42.8 °F 82% 30.13 in 10.0 mi WNW 9.2 mph - 0.00 in   Clear
11:15 PM 46.4 °F 41.9 °F 41.0 °F 81% 30.13 in 10.0 mi WNW 9.2 mph - 0.00 in   Clear
11:35 PM 46.4 °F 41.9 °F 41.0 °F 81% 30.14 in 10.0 mi WNW 9.2 mph - 0.00 in   Clear
11:55 PM 46.4 °F 42.4 °F 41.0 °F 81% 30.14 in 10.0 mi WNW 8.1 mph - 0.00 in   Clear